地図

経路データ

SID SEASON NUMBER BASIN SUBBASIN NAME ISO_TIME NATURE LAT LON WMO_WIND WMO_PRES WMO_AGENCY TRACK_TYPE DIST2LAND LANDFALL IFLAG USA_AGENCY USA_ATCF_ID USA_LAT USA_LON USA_RECORD USA_STATUS USA_WIND USA_PRES USA_SSHS USA_R34_NE USA_R34_SE USA_R34_SW USA_R34_NW USA_R50_NE USA_R50_SE USA_R50_SW USA_R50_NW USA_R64_NE USA_R64_SE USA_R64_SW USA_R64_NW USA_POCI USA_ROCI USA_RMW USA_EYE TOKYO_LAT TOKYO_LON TOKYO_GRADE TOKYO_WIND TOKYO_PRES TOKYO_R50_DIR TOKYO_R50_LONG TOKYO_R50_SHORT TOKYO_R30_DIR TOKYO_R30_LONG TOKYO_R30_SHORT TOKYO_LAND CMA_LAT CMA_LON CMA_CAT CMA_WIND CMA_PRES HKO_LAT HKO_LON HKO_CAT HKO_WIND HKO_PRES NEWDELHI_LAT NEWDELHI_LON NEWDELHI_GRADE NEWDELHI_WIND NEWDELHI_PRES NEWDELHI_CI NEWDELHI_DP NEWDELHI_POCI REUNION_LAT REUNION_LON REUNION_TYPE REUNION_WIND REUNION_PRES REUNION_TNUM REUNION_CI REUNION_RMW REUNION_R34_NE REUNION_R34_SE REUNION_R34_SW REUNION_R34_NW REUNION_R50_NE REUNION_R50_SE REUNION_R50_SW REUNION_R50_NW REUNION_R64_NE REUNION_R64_SE REUNION_R64_SW REUNION_R64_NW BOM_LAT BOM_LON BOM_TYPE BOM_WIND BOM_PRES BOM_TNUM BOM_CI BOM_RMW BOM_R34_NE BOM_R34_SE BOM_R34_SW BOM_R34_NW BOM_R50_NE BOM_R50_SE BOM_R50_SW BOM_R50_NW BOM_R64_NE BOM_R64_SE BOM_R64_SW BOM_R64_NW BOM_ROCI BOM_POCI BOM_EYE BOM_POS_METHOD BOM_PRES_METHOD NADI_LAT NADI_LON NADI_CAT NADI_WIND NADI_PRES WELLINGTON_LAT WELLINGTON_LON WELLINGTON_WIND WELLINGTON_PRES DS824_LAT DS824_LON DS824_STAGE DS824_WIND DS824_PRES TD9636_LAT TD9636_LON TD9636_STAGE TD9636_WIND TD9636_PRES TD9635_LAT TD9635_LON TD9635_WIND TD9635_PRES TD9635_ROCI NEUMANN_LAT NEUMANN_LON NEUMANN_CLASS NEUMANN_WIND NEUMANN_PRES MLC_LAT MLC_LON MLC_CLASS MLC_WIND MLC_PRES USA_GUST BOM_GUST BOM_GUST_PER REUNION_GUST REUNION_GUST_PER USA_SEAHGT USA_SEARAD_NE USA_SEARAD_SE USA_SEARAD_SW USA_SEARAD_NW STORM_SPEED STORM_DIR
1886288N11128 1886 42 WP MM NOT_NAMED 1886-10-14 16:00:00 NR 11.4000 127.700 main 212 169 __________O___ -1 11.4000 127.700 4 12 274
1886288N11128 1886 42 WP MM NOT_NAMED 1886-10-14 18:00:00 NR 11.4280 127.280 main 169 103 __________P___ -1 11.4280 127.280 4 13 274
1886288N11128 1886 42 WP MM NOT_NAMED 1886-10-14 21:00:00 NR 11.4716 126.627 main 103 34 __________P___ -1 11.4716 126.627 4 13 274
1886288N11128 1886 42 WP MM NOT_NAMED 1886-10-15 00:00:00 NR 11.5205 125.912 main 34 0 __________P___ -1 11.5205 125.912 4 15 274
1886288N11128 1886 42 WP MM NOT_NAMED 1886-10-15 03:00:00 NR 11.5782 125.099 main 0 0 __________P___ -1 11.5782 125.099 4 16 274
1886288N11128 1886 42 WP MM NOT_NAMED 1886-10-15 04:00:00 NR 11.6000 124.800 main 11 11 __________O___ -1 11.6000 124.800 4 19 274
1886288N11128 1886 42 WP MM NOT_NAMED 1886-10-15 06:00:00 NR 11.6479 124.155 main 15 0 __________P___ -1 11.6479 124.155 4 20 275
1886288N11128 1886 42 WP MM NOT_NAMED 1886-10-15 09:00:00 NR 11.7319 123.099 main 22 0 __________P___ -1 11.7319 123.099 4 21 275
1886288N11128 1886 42 WP MM NOT_NAMED 1886-10-15 12:00:00 NR 11.8329 121.985 main 0 0 __________P___ -1 11.8329 121.985 4 22 276
1886288N11128 1886 42 WP MM NOT_NAMED 1886-10-15 15:00:00 NR 11.9543 120.865 main 31 39 __________P___ -1 11.9543 120.865 4 22 277
1886288N11128 1886 42 WP MM NOT_NAMED 1886-10-15 16:00:00 NR 12.0000 120.500 main 69 69 __________O___ -1 12.0000 120.500 4 21 278
1886288N11128 1886 42 WP MM NOT_NAMED 1886-10-15 18:00:00 NR 12.0964 119.793 main 92 89 __________P___ -1 12.0964 119.793 4 21 279
1886288N11128 1886 42 WP MM NOT_NAMED 1886-10-15 21:00:00 NR 12.2605 118.750 main 135 141 __________P___ -1 12.2605 118.750 4 20 280
1886288N11128 1886 42 WP MM NOT_NAMED 1886-10-16 00:00:00 NR 12.4420 117.746 main 228 235 __________P___ -1 12.4420 117.746 4 19 281
1886288N11128 1886 42 WP MM NOT_NAMED 1886-10-16 03:00:00 NR 12.6345 116.799 main 323 333 __________P___ -1 12.6345 116.799 4 19 282
1886288N11128 1886 42 WP MM NOT_NAMED 1886-10-16 04:00:00 NR 12.7000 116.500 main 357 357 __________O___ -1 12.7000 116.500 4 17 283
1886288N11128 1886 42 WP MM NOT_NAMED 1886-10-16 06:00:00 NR 12.8263 115.932 main 420 420 __________P___ -1 12.8263 115.932 4 16 284
1886288N11128 1886 42 WP MM NOT_NAMED 1886-10-16 09:00:00 NR 13.0231 115.136 main 509 509 __________P___ -1 13.0231 115.136 4 16 285
1886288N11128 1886 42 WP MM NOT_NAMED 1886-10-16 12:00:00 NR 13.2260 114.384 main 532 447 __________P___ -1 13.2260 114.384 4 15 286
1886288N11128 1886 42 WP MM NOT_NAMED 1886-10-16 15:00:00 NR 13.4315 113.647 main 447 427 __________P___ -1 13.4315 113.647 4 15 286
1886288N11128 1886 42 WP MM NOT_NAMED 1886-10-16 16:00:00 NR 13.5000 113.400 main 427 376 __________O___ -1 13.5000 113.400 4 15 286
1886288N11128 1886 42 WP MM NOT_NAMED 1886-10-16 18:00:00 NR 13.6362 112.899 main 376 298 __________P___ -1 13.6362 112.899 4 15 285
1886288N11128 1886 42 WP MM NOT_NAMED 1886-10-16 21:00:00 NR 13.8384 112.132 main 298 227 __________P___ -1 13.8384 112.132 4 16 285
1886288N11128 1886 42 WP MM NOT_NAMED 1886-10-17 00:00:00 NR 14.0380 111.352 main 227 144 __________P___ -1 14.0380 111.352 4 16 285
1886288N11128 1886 42 WP MM NOT_NAMED 1886-10-17 03:00:00 NR 14.2349 110.564 main 144 116 __________P___ -1 14.2349 110.564 4 16 284
1886288N11128 1886 42 WP MM NOT_NAMED 1886-10-17 04:00:00 NR 14.3000 110.300 main 116 __________O___ -1 14.3000 110.300 4 16 284

デジタル台風データ・検索

IBTrACS Databaseについて

本データベースは、米国NOAAが公開する1842年以降の世界の熱帯低気圧のベストトラックデータアーカイブInternational Best Track Archive for Climate Stewardship (IBTrACS)を、ウェブで閲覧しやすい形式に変換したものです。

最終更新日:2021-10-08